Time;durP1;ratioP1;P1;durP2;ratioP2;P2;SDS_P1;SDS_P2;PMS_P1;PMS_P2;Temp;Humidity;BMP_temperature;BMP_pressure;BME280_temperature;BME280_humidity;BME280_pressure;Samples;Min_cycle;Max_cycle;Signal;HPM_P1;HPM_P2
2022/07/10 00:01:49;;;;;;;3.47;0.70;;;14.50;99.90;;;;;;4992443;28;20216;-87
2022/07/10 00:04:15;;;;;;;0.77;0.77;;;14.60;99.90;;;;;;4977991;28;20214;-86
2022/07/10 00:06:42;;;;;;;0.40;0.40;;;14.50;99.90;;;;;;5009641;28;20230;-86
2022/07/10 00:09:08;;;;;;;2.00;0.67;;;14.60;99.90;;;;;;4968996;28;20214;-87
2022/07/10 00:11:34;;;;;;;1.07;0.57;;;14.60;99.90;;;;;;4993234;28;20219;-86
2022/07/10 00:14:00;;;;;;;0.57;0.40;;;14.60;99.90;;;;;;4992929;28;20219;-87
2022/07/10 00:16:25;;;;;;;0.63;0.47;;;14.70;99.90;;;;;;4992795;28;20203;-87
2022/07/10 00:18:51;;;;;;;2.10;0.80;;;14.80;99.90;;;;;;4994171;28;20186;-86
2022/07/10 00:21:17;;;;;;;0.40;0.40;;;14.90;99.90;;;;;;5000956;28;20691;-86
2022/07/10 00:23:43;;;;;;;0.60;0.47;;;15.00;99.90;;;;;;4992085;28;20376;-86
2022/07/10 00:26:09;;;;;;;0.20;0.20;;;15.00;99.90;;;;;;4993071;28;20254;-86
2022/07/10 00:28:36;;;;;;;0.77;0.70;;;15.00;99.90;;;;;;5008622;28;20212;-87
2022/07/10 00:31:02;;;;;;;0.17;0.17;;;14.90;99.90;;;;;;4992689;28;20579;-86
2022/07/10 00:33:28;;;;;;;3.40;0.83;;;14.90;99.90;;;;;;5008849;28;20211;-87
2022/07/10 00:35:54;;;;;;;1.37;0.70;;;15.00;99.90;;;;;;5008516;28;20239;-87
2022/07/10 00:38:19;;;;;;;1.07;0.97;;;15.00;99.90;;;;;;4985964;28;20228;-87
2022/07/10 00:40:45;;;;;;;2.00;0.77;;;14.90;99.90;;;;;;5025075;28;20690;-86
2022/07/10 00:43:11;;;;;;;5.73;0.97;;;14.80;99.90;;;;;;4984183;28;20225;-86
2022/07/10 00:45:37;;;;;;;0.83;0.50;;;14.70;99.90;;;;;;4975965;28;20226;-86
2022/07/10 00:48:03;;;;;;;2.03;0.53;;;14.60;99.90;;;;;;5008840;28;20211;-87
2022/07/10 00:50:29;;;;;;;1.80;1.70;;;14.50;99.90;;;;;;5017105;28;20250;-87
2022/07/10 00:52:55;;;;;;;2.07;0.73;;;14.40;99.90;;;;;;5000982;28;20585;-87
2022/07/10 00:55:21;;;;;;;2.20;0.67;;;14.40;99.90;;;;;;5001738;28;20871;-86
2022/07/10 00:57:48;;;;;;;2.23;0.70;;;14.30;99.90;;;;;;5003187;28;20214;-86
2022/07/10 01:00:14;;;;;;;4.37;0.73;;;14.30;99.90;;;;;;4983711;28;21174;-86
2022/07/10 01:02:42;;;;;;;3.83;0.40;;;14.30;99.90;;;;;;5024452;28;20219;-86
2022/07/10 01:05:09;;;;;;;2.33;0.50;;;14.30;99.90;;;;;;5000268;28;20234;-86
2022/07/10 01:07:34;;;;;;;3.00;0.33;;;14.30;99.90;;;;;;5004914;28;20230;-86
2022/07/10 01:10:02;;;;;;;1.03;0.67;;;14.30;99.90;;;;;;5012427;28;20191;-87
2022/07/10 01:12:28;;;;;;;0.93;0.53;;;14.40;99.90;;;;;;4995555;28;20215;-86
2022/07/10 01:14:54;;;;;;;1.17;0.50;;;14.50;99.90;;;;;;5005998;28;20284;-86
2022/07/10 01:17:20;;;;;;;3.00;0.80;;;14.50;99.90;;;;;;4995521;28;20703;-86
2022/07/10 01:19:46;;;;;;;0.77;0.60;;;14.60;99.90;;;;;;4996190;28;20212;-87
2022/07/10 01:22:11;;;;;;;1.03;1.03;;;14.70;99.90;;;;;;4980433;28;20191;-87
2022/07/10 01:24:37;;;;;;;4.60;0.53;;;14.80;99.90;;;;;;5011851;28;20207;-88
2022/07/10 01:27:03;;;;;;;0.80;0.80;;;14.80;99.90;;;;;;5011879;28;20802;-89
2022/07/10 01:29:29;;;;;;;1.37;1.27;;;14.90;99.90;;;;;;4995903;28;20214;-87
2022/07/10 01:31:55;;;;;;;0.60;0.47;;;15.00;99.90;;;;;;4993009;28;20218;-86
2022/07/10 01:34:21;;;;;;;9.27;1.27;;;15.00;99.90;;;;;;4991851;28;20183;-87
2022/07/10 01:36:47;;;;;;;4.17;0.80;;;15.00;99.90;;;;;;5010997;28;20316;-87
2022/07/10 01:39:13;;;;;;;0.30;0.30;;;15.00;99.90;;;;;;5003426;28;20263;-87
2022/07/10 01:41:39;;;;;;;1.57;0.70;;;14.90;99.90;;;;;;5012360;28;20246;-86
2022/07/10 01:44:04;;;;;;;3.03;0.47;;;14.90;99.90;;;;;;4978987;28;20223;-87
2022/07/10 01:46:30;;;;;;;1.13;0.90;;;15.00;99.90;;;;;;4978550;28;21235;-87
2022/07/10 01:48:56;;;;;;;1.40;1.03;;;15.00;99.90;;;;;;4987970;28;20198;-87
2022/07/10 01:51:23;;;;;;;1.40;1.07;;;15.00;99.90;;;;;;5004516;28;20675;-87
2022/07/10 01:53:48;;;;;;;0.77;0.37;;;15.00;99.90;;;;;;5011337;28;20208;-88
2022/07/10 01:56:15;;;;;;;1.33;0.87;;;15.00;99.90;;;;;;5004730;28;20215;-88
2022/07/10 01:58:41;;;;;;;0.97;0.40;;;15.10;99.90;;;;;;4995460;28;20682;-86
2022/07/10 02:01:08;;;;;;;3.10;0.50;;;15.10;99.90;;;;;;5004053;28;20184;-87
2022/07/10 02:06:18;;;;;;;0.77;0.53;;;15.10;99.90;;;;;;5025093;28;20204;-87
2022/07/10 02:08:44;;;;;;;2.07;0.63;;;15.10;99.90;;;;;;4995054;28;20223;-87
2022/07/10 02:11:12;;;;;;;1.13;0.60;;;15.20;99.90;;;;;;5003486;28;20230;-87
2022/07/10 02:13:38;;;;;;;1.80;0.70;;;15.20;99.90;;;;;;5009955;28;20208;-87
2022/07/10 02:16:04;;;;;;;2.47;0.70;;;15.20;99.90;;;;;;4995405;28;20190;-87
2022/07/10 02:18:30;;;;;;;3.63;0.90;;;15.20;99.90;;;;;;4993686;28;20215;-87
2022/07/10 02:20:56;;;;;;;6.60;0.93;;;15.20;99.90;;;;;;4986636;28;20766;-88
2022/07/10 02:23:21;;;;;;;2.87;0.60;;;15.20;99.90;;;;;;4993781;28;20306;-87
2022/07/10 02:25:47;;;;;;;0.70;0.60;;;15.20;99.90;;;;;;4988248;28;20311;-87
2022/07/10 02:28:13;;;;;;;3.00;1.03;;;15.30;99.90;;;;;;4995139;28;20233;-88
2022/07/10 02:30:38;;;;;;;1.77;1.50;;;15.20;99.90;;;;;;4959992;28;20200;-87
2022/07/10 02:33:04;;;;;;;0.60;0.47;;;15.20;99.90;;;;;;4966079;28;20298;-87
2022/07/10 02:35:30;;;;;;;1.80;0.60;;;15.20;99.90;;;;;;4968044;28;20201;-87
2022/07/10 02:37:56;;;;;;;3.33;1.33;;;15.30;99.90;;;;;;4991720;28;20227;-88
2022/07/10 02:40:22;;;;;;;0.57;0.57;;;15.20;99.90;;;;;;4990560;28;20693;-86
2022/07/10 02:42:47;;;;;;;1.27;0.93;;;15.20;99.90;;;;;;4968540;28;20212;-87
2022/07/10 02:45:13;;;;;;;1.07;0.77;;;15.20;99.90;;;;;;4974714;28;20220;-87
2022/07/10 02:47:39;;;;;;;0.40;0.40;;;15.10;99.90;;;;;;5012602;28;20764;-87
2022/07/10 02:50:05;;;;;;;4.60;2.27;;;15.10;99.90;;;;;;4994297;28;20743;-86
2022/07/10 02:52:31;;;;;;;1.87;0.80;;;15.10;99.90;;;;;;5010230;28;20184;-87
2022/07/10 02:54:57;;;;;;;4.60;0.93;;;15.10;99.90;;;;;;4988306;28;20187;-87
2022/07/10 02:57:24;;;;;;;1.57;1.23;;;15.10;99.90;;;;;;5002359;28;20227;-87
2022/07/10 02:59:49;;;;;;;2.83;0.57;;;15.20;99.90;;;;;;5002365;28;20207;-87
2022/07/10 03:02:15;;;;;;;2.13;0.90;;;15.20;99.90;;;;;;5009551;28;20584;-86
2022/07/10 03:04:41;;;;;;;3.40;1.20;;;15.20;99.90;;;;;;4985650;28;20234;-86
2022/07/10 03:07:07;;;;;;;0.50;0.50;;;15.30;99.90;;;;;;5010209;28;20232;-87
2022/07/10 03:09:33;;;;;;;0.83;0.70;;;15.40;99.90;;;;;;4985858;28;20215;-88
2022/07/10 03:11:59;;;;;;;1.57;0.97;;;15.30;99.90;;;;;;5017902;28;20212;-87
2022/07/10 03:14:26;;;;;;;0.97;0.60;;;15.20;99.90;;;;;;4986401;28;20219;-87
2022/07/10 03:16:51;;;;;;;5.07;1.20;;;15.10;99.90;;;;;;4985498;28;20218;-87
2022/07/10 03:19:17;;;;;;;1.00;0.97;;;15.00;99.90;;;;;;4993407;28;20621;-88
2022/07/10 03:21:44;;;;;;;2.83;1.47;;;14.90;99.90;;;;;;5026677;28;20196;-87
2022/07/10 03:24:10;;;;;;;1.03;0.50;;;15.00;99.90;;;;;;5000253;28;20219;-87
2022/07/10 03:26:35;;;;;;;0.20;0.20;;;14.90;99.90;;;;;;4985395;28;20268;-87
2022/07/10 03:29:01;;;;;;;0.43;0.43;;;14.90;99.90;;;;;;4993479;28;20610;-89
2022/07/10 03:31:27;;;;;;;3.67;0.57;;;14.80;99.90;;;;;;4985341;28;20194;-87
2022/07/10 03:33:52;;;;;;;1.30;0.93;;;14.70;99.90;;;;;;5010717;28;20711;-87
2022/07/10 03:36:19;;;;;;;1.80;1.43;;;14.70;99.90;;;;;;4993511;28;20219;-88
2022/07/10 03:38:46;;;;;;;3.27;0.80;;;14.60;99.90;;;;;;5009684;28;20212;-88
2022/07/10 03:41:13;;;;;;;0.93;0.63;;;14.60;99.90;;;;;;4984993;28;20270;-88
2022/07/10 03:43:38;;;;;;;7.33;1.20;;;14.60;99.90;;;;;;5002696;28;20227;-87
2022/07/10 03:46:04;;;;;;;3.40;0.83;;;14.60;99.90;;;;;;4985782;28;20188;-88
2022/07/10 03:48:30;;;;;;;9.23;0.87;;;14.60;99.90;;;;;;4992941;28;20238;-88
2022/07/10 03:50:56;;;;;;;7.53;1.83;;;14.60;99.90;;;;;;5002399;28;20207;-87
2022/07/10 03:53:21;;;;;;;3.30;1.70;;;14.60;99.90;;;;;;5009686;28;20265;-88
2022/07/10 03:55:47;;;;;;;1.60;0.60;;;14.60;99.90;;;;;;5001403;28;20214;-87
2022/07/10 03:58:13;;;;;;;1.33;0.50;;;14.60;99.90;;;;;;5002987;28;20192;-87
2022/07/10 04:00:40;;;;;;;0.83;0.73;;;14.50;99.90;;;;;;4984665;28;20279;-87
2022/07/10 04:03:07;;;;;;;1.63;0.90;;;14.60;99.90;;;;;;4992797;28;20579;-87
2022/07/10 04:05:33;;;;;;;0.83;0.80;;;14.70;99.90;;;;;;5025081;28;20693;-87
2022/07/10 04:08:00;;;;;;;0.63;0.63;;;14.60;99.90;;;;;;5008670;28;20231;-87
2022/07/10 04:10:27;;;;;;;0.40;0.30;;;14.70;99.90;;;;;;5004647;28;20754;-88
2022/07/10 04:12:53;;;;;;;0.53;0.53;;;14.70;99.90;;;;;;5002376;28;20270;-87
2022/07/10 04:15:19;;;;;;;1.33;1.07;;;14.70;99.90;;;;;;4999865;28;20346;-87
2022/07/10 04:17:46;;;;;;;4.67;0.97;;;14.70;99.90;;;;;;5008938;28;20573;-87
2022/07/10 04:20:11;;;;;;;0.70;0.57;;;14.60;99.90;;;;;;5000426;28;20211;-89
2022/07/10 04:22:38;;;;;;;0.53;0.50;;;14.50;99.90;;;;;;5000813;28;20293;-87
2022/07/10 04:25:04;;;;;;;0.83;0.73;;;14.50;99.90;;;;;;5002017;28;20178;-87
2022/07/10 04:27:30;;;;;;;0.80;0.67;;;14.50;99.90;;;;;;4985033;28;20689;-87
2022/07/10 04:29:56;;;;;;;0.50;0.50;;;14.60;99.90;;;;;;4984352;28;20218;-87
2022/07/10 04:32:21;;;;;;;4.43;1.87;;;14.60;99.90;;;;;;5009021;28;20218;-87
2022/07/10 04:34:47;;;;;;;2.53;0.73;;;14.60;99.90;;;;;;4983060;28;20234;-87
2022/07/10 04:37:13;;;;;;;4.77;1.20;;;14.60;99.90;;;;;;5002716;28;20573;-87
2022/07/10 04:39:39;;;;;;;4.53;0.90;;;14.60;99.90;;;;;;4984514;28;20631;-87
2022/07/10 04:42:06;;;;;;;1.00;1.00;;;14.70;99.90;;;;;;5024418;28;20212;-87
2022/07/10 04:44:32;;;;;;;1.13;0.60;;;14.70;99.90;;;;;;5001111;28;20588;-87
2022/07/10 04:46:58;;;;;;;2.00;0.70;;;14.70;99.90;;;;;;5001982;28;20221;-87
2022/07/10 04:49:24;;;;;;;2.53;0.97;;;14.80;99.90;;;;;;5008165;28;20196;-88
2022/07/10 04:51:50;;;;;;;3.20;1.00;;;14.80;99.90;;;;;;5000745;28;20268;-87
2022/07/10 04:54:16;;;;;;;0.37;0.37;;;14.80;99.90;;;;;;5008605;28;20772;-88
2022/07/10 04:56:42;;;;;;;1.83;0.67;;;14.80;99.90;;;;;;4991730;28;20286;-87
2022/07/10 04:59:09;;;;;;;2.80;1.20;;;14.90;99.90;;;;;;4991783;28;20223;-87
2022/07/10 05:01:35;;;;;;;1.40;0.70;;;14.90;99.90;;;;;;5025164;28;20203;-87
2022/07/10 05:04:01;;;;;;;5.07;1.33;;;15.00;99.90;;;;;;5001526;28;20545;-87
2022/07/10 05:06:26;;;;;;;2.87;0.60;;;15.00;99.90;;;;;;5008454;28;20253;-87
2022/07/10 05:08:53;;;;;;;1.20;0.70;;;15.00;99.90;;;;;;5008001;28;20299;-87
2022/07/10 05:11:19;;;;;;;7.67;1.03;;;15.00;99.90;;;;;;4983909;28;20306;-87
2022/07/10 05:13:46;;;;;;;3.10;0.90;;;15.00;99.90;;;;;;5007768;28;20291;-87
2022/07/10 05:16:15;;;;;;;2.83;0.80;;;14.90;99.90;;;;;;4992573;28;20184;-86
2022/07/10 05:18:41;;;;;;;3.00;1.03;;;14.90;99.90;;;;;;5025013;28;20258;-86
2022/07/10 05:21:07;;;;;;;2.37;0.90;;;14.90;99.90;;;;;;5001036;28;20215;-86
2022/07/10 05:23:33;;;;;;;2.90;0.93;;;14.90;99.90;;;;;;5008333;28;20220;-87
2022/07/10 05:25:58;;;;;;;5.97;0.97;;;15.00;99.90;;;;;;4999103;28;20645;-87
2022/07/10 05:28:24;;;;;;;3.00;1.30;;;15.00;99.90;;;;;;4999620;28;20172;-87
2022/07/10 05:30:50;;;;;;;1.83;0.70;;;15.10;99.90;;;;;;4985457;28;20187;-87
2022/07/10 05:33:16;;;;;;;0.30;0.30;;;15.10;99.90;;;;;;4992257;28;20251;-86
2022/07/10 05:35:42;;;;;;;0.77;0.70;;;15.10;99.90;;;;;;5000513;28;20703;-87
2022/07/10 05:38:08;;;;;;;0.97;0.70;;;15.10;99.90;;;;;;4999465;28;20425;-87
2022/07/10 05:40:33;;;;;;;2.37;0.60;;;15.10;99.90;;;;;;4999726;28;20216;-87
2022/07/10 05:42:59;;;;;;;0.30;0.30;;;15.30;99.90;;;;;;4984338;28;20204;-88
2022/07/10 05:45:25;;;;;;;2.53;1.87;;;15.30;99.90;;;;;;4999687;28;20212;-87
2022/07/10 05:47:51;;;;;;;2.37;1.63;;;15.50;99.90;;;;;;5001748;28;20212;-87
2022/07/10 05:50:17;;;;;;;2.33;0.20;;;15.50;99.90;;;;;;4991180;28;20235;-87
2022/07/10 05:52:43;;;;;;;0.50;0.50;;;15.50;99.90;;;;;;5002061;28;20356;-87
2022/07/10 05:55:09;;;;;;;0.47;0.47;;;15.50;99.90;;;;;;4987678;28;20339;-88
2022/07/10 05:57:35;;;;;;;0.13;0.13;;;15.50;99.90;;;;;;5011355;28;20585;-87
2022/07/10 06:00:43;;;;;;;0.30;0.20;;;15.60;99.90;;;;;;4994755;28;20212;-89
2022/07/10 06:03:01;;;;;;;3.10;0.70;;;15.70;99.90;;;;;;5001615;28;20232;-87
2022/07/10 06:05:27;;;;;;;0.60;0.60;;;15.90;99.90;;;;;;4986613;28;20238;-86
2022/07/10 06:07:53;;;;;;;0.37;0.33;;;16.50;99.90;;;;;;5004734;28;20288;-87
2022/07/10 06:10:19;;;;;;;2.20;0.97;;;16.30;99.90;;;;;;4995575;28;20203;-87
2022/07/10 06:12:45;;;;;;;1.33;0.83;;;16.10;99.90;;;;;;5004024;28;20188;-88
2022/07/10 06:15:11;;;;;;;0.57;0.57;;;16.10;99.90;;;;;;5010775;28;20758;-86
2022/07/10 06:17:36;;;;;;;0.50;0.50;;;16.00;99.90;;;;;;5002981;28;20222;-88
2022/07/10 06:20:03;;;;;;;0.40;0.40;;;15.90;99.90;;;;;;5010761;28;20684;-87
2022/07/10 06:22:32;;;;;;;1.57;0.90;;;15.90;99.90;;;;;;5002089;28;20652;-88
2022/07/10 06:24:59;;;;;;;4.03;0.50;;;15.80;99.90;;;;;;5011451;28;20183;-88
2022/07/10 06:27:25;;;;;;;2.87;0.50;;;15.80;99.90;;;;;;5020121;28;20234;-88
2022/07/10 06:29:51;;;;;;;0.63;0.63;;;15.80;99.90;;;;;;5018681;28;20224;-87
2022/07/10 06:32:16;;;;;;;5.33;0.73;;;15.70;99.90;;;;;;4986011;28;20238;-86
2022/07/10 06:34:42;;;;;;;1.00;0.90;;;15.70;99.90;;;;;;5010346;28;20217;-86
2022/07/10 06:37:08;;;;;;;0.50;0.50;;;15.70;99.90;;;;;;5011354;28;20282;-87
2022/07/10 06:39:37;;;;;;;2.10;0.80;;;15.60;99.90;;;;;;5002584;28;20204;-88
2022/07/10 06:42:03;;;;;;;0.77;0.60;;;15.60;99.90;;;;;;5010466;28;20710;-89
2022/07/10 06:44:29;;;;;;;3.03;0.60;;;15.50;99.90;;;;;;5020402;28;20235;-87
2022/07/10 06:49:40;;;;;;;0.50;0.50;;;15.50;99.90;;;;;;5023813;28;20220;-87
2022/07/10 06:52:06;;;;;;;2.33;0.77;;;15.70;99.90;;;;;;5010821;28;20199;-87
2022/07/10 06:54:33;;;;;;;1.80;1.10;;;15.80;99.90;;;;;;4986052;28;20576;-87
2022/07/10 06:56:59;;;;;;;2.17;1.63;;;15.90;99.90;;;;;;5003162;28;20603;-86
2022/07/10 06:59:25;;;;;;;3.17;0.80;;;15.90;99.90;;;;;;4993607;28;20255;-87
2022/07/10 07:01:51;;;;;;;6.43;1.37;;;15.90;99.90;;;;;;4986348;28;20310;-88
2022/07/10 07:04:16;;;;;;;5.33;1.23;;;15.90;99.90;;;;;;4983774;28;20570;-88
2022/07/10 07:06:42;;;;;;;2.80;0.90;;;15.90;99.90;;;;;;5018637;28;20221;-86
2022/07/10 07:09:08;;;;;;;3.97;0.63;;;15.80;99.90;;;;;;5010257;28;20819;-89
2022/07/10 07:11:33;;;;;;;0.60;0.60;;;15.70;99.90;;;;;;5002187;28;21173;-89
2022/07/10 07:13:59;;;;;;;0.40;0.40;;;15.70;99.90;;;;;;4986907;28;20215;-89
2022/07/10 07:16:38;;;;;;;5.20;1.10;;;15.60;99.90;;;;;;4984162;28;20686;-86
2022/07/10 07:19:04;;;;;;;0.37;0.37;;;15.70;99.90;;;;;;5009633;28;20192;-86
2022/07/10 07:24:18;;;;;;;0.83;0.53;;;15.70;99.90;;;;;;5005816;28;20211;-87
2022/07/10 07:26:46;;;;;;;1.50;0.80;;;15.60;99.90;;;;;;5001565;28;20238;-85
2022/07/10 07:29:16;;;;;;;2.23;1.10;;;15.80;99.90;;;;;;5002784;28;20242;-84
2022/07/10 07:31:42;;;;;;;0.70;0.60;;;16.00;99.90;;;;;;5019653;28;20697;-85
2022/07/10 07:34:09;;;;;;;2.57;0.63;;;16.30;99.90;;;;;;5009871;28;20279;-85
2022/07/10 07:36:34;;;;;;;0.70;0.70;;;16.80;99.90;;;;;;5002228;28;20683;-85
2022/07/10 07:39:00;;;;;;;1.53;1.00;;;17.20;99.90;;;;;;4993743;28;20263;-85
2022/07/10 07:41:26;;;;;;;3.20;1.03;;;17.50;99.90;;;;;;4998858;28;20227;-85
2022/07/10 07:43:52;;;;;;;4.10;0.80;;;17.40;99.90;;;;;;4984600;28;20623;-85
2022/07/10 07:46:19;;;;;;;2.60;0.70;;;17.20;99.90;;;;;;5002667;28;20303;-87
2022/07/10 07:48:45;;;;;;;3.33;0.50;;;17.10;99.90;;;;;;5004773;28;20668;-88
2022/07/10 07:51:11;;;;;;;0.73;0.50;;;17.10;99.90;;;;;;5001232;28;20210;-91
2022/07/10 07:53:37;;;;;;;2.93;1.00;;;17.20;99.90;;;;;;5001370;28;20219;-90
2022/07/10 07:56:03;;;;;;;0.70;0.53;;;17.10;99.90;;;;;;5002341;28;20307;-92
2022/07/10 07:58:29;;;;;;;2.07;0.70;;;17.10;99.90;;;;;;4993779;28;20180;-90
2022/07/10 08:00:56;;;;;;;0.70;0.50;;;17.00;99.90;;;;;;4987803;28;20721;-93
2022/07/10 08:03:22;;;;;;;2.47;1.00;;;16.90;99.90;;;;;;5009650;28;20247;-89
2022/07/10 08:05:49;;;;;;;3.00;0.83;;;16.60;99.90;;;;;;5002537;28;20211;-89
2022/07/10 08:08:15;;;;;;;1.17;1.03;;;16.40;99.90;;;;;;5008656;28;20231;-90
2022/07/10 08:10:40;;;;;;;0.63;0.63;;;16.20;99.90;;;;;;5009814;28;20207;-88
2022/07/10 08:13:06;;;;;;;1.30;0.83;;;16.20;99.90;;;;;;5017835;28;20187;-88
2022/07/10 08:15:34;;;;;;;0.67;0.60;;;16.30;99.90;;;;;;4985730;28;20786;-88
2022/07/10 08:18:00;;;;;;;8.03;0.90;;;16.40;99.90;;;;;;5025042;28;20219;-88
2022/07/10 08:20:27;;;;;;;2.40;1.50;;;16.30;99.90;;;;;;4986483;28;20638;-88
2022/07/10 08:22:53;;;;;;;1.37;1.07;;;16.20;99.90;;;;;;5009237;28;20255;-87
2022/07/10 08:25:19;;;;;;;4.07;0.63;;;16.20;99.90;;;;;;5002895;28;20184;-88
2022/07/10 08:27:45;;;;;;;1.50;1.10;;;16.10;99.90;;;;;;5001128;28;20277;-89
2022/07/10 08:30:11;;;;;;;1.10;0.77;;;16.10;99.90;;;;;;4984962;28;20225;-88
2022/07/10 08:32:40;;;;;;;4.53;1.00;;;16.10;99.90;;;;;;4992144;28;20208;-88
2022/07/10 08:35:08;;;;;;;1.90;1.00;;;16.20;99.90;;;;;;5001587;28;20228;-89
2022/07/10 08:37:40;;;;;;;5.87;1.20;;;16.20;99.90;;;;;;5002038;28;20679;-87
2022/07/10 08:40:11;;;;;;;1.10;1.00;;;16.20;99.90;;;;;;5001197;28;20190;-87
2022/07/10 08:42:37;;;;;;;1.20;0.60;;;16.30;99.90;;;;;;5000809;28;20230;-85
2022/07/10 08:45:03;;;;;;;0.83;0.67;;;16.40;99.90;;;;;;4991275;28;20617;-83
2022/07/10 08:47:31;;;;;;;0.77;0.50;;;16.40;99.90;;;;;;4984005;28;20282;-84
2022/07/10 08:49:57;;;;;;;5.53;1.00;;;16.40;99.90;;;;;;4967863;28;20207;-85
2022/07/10 08:52:33;;;;;;;0.90;0.70;;;16.50;99.90;;;;;;4992371;28;20199;-84
2022/07/10 08:54:59;;;;;;;5.03;0.83;;;16.50;99.90;;;;;;5008935;28;20666;-86
2022/07/10 08:57:26;;;;;;;2.73;0.93;;;16.60;99.90;;;;;;4983679;28;20231;-85
2022/07/10 08:59:53;;;;;;;0.70;0.50;;;16.80;99.90;;;;;;5000986;28;20236;-84
2022/07/10 09:02:19;;;;;;;0.73;0.50;;;16.90;99.90;;;;;;5002059;28;20215;-84
2022/07/10 09:04:45;;;;;;;0.67;0.67;;;17.20;99.90;;;;;;4975551;28;20694;-86
2022/07/10 09:07:11;;;;;;;3.90;0.73;;;17.10;99.90;;;;;;4992880;28;20257;-85
2022/07/10 09:09:57;;;;;;;0.97;0.80;;;17.20;99.90;;;;;;5000699;28;20708;-85
2022/07/10 09:12:24;;;;;;;4.53;0.70;;;17.20;99.90;;;;;;5000311;28;20215;-84
2022/07/10 09:14:51;;;;;;;2.00;1.10;;;17.10;99.90;;;;;;5018399;28;20212;-86
2022/07/10 09:17:18;;;;;;;3.30;0.70;;;17.10;99.90;;;;;;5001370;28;20223;-85
2022/07/10 09:19:44;;;;;;;1.10;0.97;;;17.20;99.90;;;;;;4991051;28;20559;-85
2022/07/10 09:22:11;;;;;;;4.63;1.23;;;17.50;99.90;;;;;;4991302;28;20254;-84
2022/07/10 09:24:45;;;;;;;0.87;0.80;;;17.50;99.90;;;;;;5000338;28;20239;-84
2022/07/10 09:27:15;;;;;;;2.50;0.80;;;17.50;99.90;;;;;;4967806;28;21313;-84
2022/07/10 09:29:54;;;;;;;1.73;1.00;;;17.50;99.90;;;;;;5000264;28;20212;-84
2022/07/10 09:32:19;;;;;;;0.70;0.67;;;17.60;99.90;;;;;;4984013;28;20613;-84
2022/07/10 09:34:46;;;;;;;1.07;0.60;;;17.80;99.90;;;;;;4959941;28;20291;-84
2022/07/10 09:37:29;;;;;;;1.67;1.03;;;17.70;99.90;;;;;;5001026;28;20187;-84
2022/07/10 09:39:57;;;;;;;1.03;0.60;;;17.80;99.90;;;;;;4991667;28;20212;-84
2022/07/10 09:42:42;;;;;;;13.43;1.13;;;17.80;99.90;;;;;;5017452;28;20222;-84
2022/07/10 09:45:12;;;;;;;2.00;0.73;;;17.70;99.90;;;;;;5027297;28;20281;-84
2022/07/10 09:47:46;;;;;;;1.20;1.00;;;17.60;99.90;;;;;;5003444;28;20215;-84
2022/07/10 09:50:24;;;;;;;4.87;1.60;;;17.70;99.90;;;;;;5011237;28;20258;-84
2022/07/10 09:53:09;;;;;;;2.73;1.23;;;17.70;99.90;;;;;;5005463;28;20309;-86
2022/07/10 09:55:36;;;;;;;0.70;0.70;;;17.70;99.90;;;;;;5004419;28;20225;-86
2022/07/10 09:58:03;;;;;;;1.93;0.87;;;17.70;99.90;;;;;;4994741;28;20206;-85
2022/07/10 10:00:40;;;;;;;0.97;0.70;;;17.80;99.90;;;;;;5027109;28;20223;-86
2022/07/10 10:03:09;;;;;;;0.83;0.80;;;17.60;99.90;;;;;;5005952;28;20223;-86
2022/07/10 10:05:37;;;;;;;5.47;0.97;;;17.50;99.90;;;;;;5009765;28;20211;-85
2022/07/10 10:08:12;;;;;;;2.67;1.30;;;17.50;99.90;;;;;;5004568;28;20227;-85
2022/07/10 10:10:43;;;;;;;2.00;0.70;;;17.50;99.90;;;;;;5011037;28;20210;-84
2022/07/10 10:13:11;;;;;;;3.40;1.00;;;17.40;99.90;;;;;;5005126;28;20186;-85
2022/07/10 10:15:38;;;;;;;1.80;0.90;;;17.30;99.90;;;;;;5026644;28;20242;-85
2022/07/10 10:18:04;;;;;;;0.80;0.80;;;17.20;99.90;;;;;;4993243;28;20219;-86
2022/07/10 10:20:37;;;;;;;8.47;1.20;;;17.20;99.90;;;;;;4994065;28;20698;-86
2022/07/10 10:23:04;;;;;;;0.77;0.77;;;17.20;99.90;;;;;;4995504;28;20216;-85
2022/07/10 10:25:32;;;;;;;1.63;0.80;;;17.20;99.90;;;;;;5005475;28;20266;-85
2022/07/10 10:28:04;;;;;;;1.53;1.13;;;17.20;99.90;;;;;;4983119;28;20238;-84
2022/07/10 10:30:31;;;;;;;1.07;0.80;;;17.20;99.90;;;;;;5005826;28;20215;-85
2022/07/10 10:32:56;;;;;;;2.83;1.50;;;17.10;99.90;;;;;;4989685;28;20295;-85
2022/07/10 10:35:48;;;;;;;1.00;0.90;;;17.10;99.90;;;;;;4973224;28;20294;-85
2022/07/10 10:38:15;;;;;;;0.70;0.60;;;17.10;99.90;;;;;;4990119;28;20684;-85
2022/07/10 10:40:41;;;;;;;0.50;0.50;;;17.20;99.90;;;;;;4973119;28;20219;-84
2022/07/10 10:43:21;;;;;;;1.83;0.90;;;17.20;99.90;;;;;;5007178;28;20347;-85
2022/07/10 10:45:47;;;;;;;0.80;0.80;;;17.20;99.90;;;;;;5019287;28;20290;-85
2022/07/10 10:48:20;;;;;;;2.23;0.80;;;17.20;99.90;;;;;;5017848;28;20212;-85
2022/07/10 10:50:50;;;;;;;2.33;0.87;;;17.20;99.90;;;;;;5019439;28;20225;-85
2022/07/10 10:53:26;;;;;;;1.77;0.90;;;17.30;99.90;;;;;;5009209;28;20741;-85
2022/07/10 10:56:18;;;;;;;5.27;0.73;;;17.30;99.90;;;;;;4982118;28;20230;-86
2022/07/10 10:58:45;;;;;;;3.50;1.30;;;17.30;99.90;;;;;;4981069;28;20266;-85
2022/07/10 11:01:20;;;;;;;0.57;0.57;;;17.20;99.90;;;;;;4989647;28;20200;-84
2022/07/10 11:04:04;;;;;;;4.13;1.20;;;17.30;99.90;;;;;;5002592;28;20589;-84
2022/07/10 11:06:47;;;;;;;1.90;0.97;;;17.40;99.90;;;;;;5008469;28;20242;-84
2022/07/10 11:09:24;;;;;;;2.70;0.97;;;17.50;99.90;;;;;;5017493;28;20223;-86
2022/07/10 11:12:08;;;;;;;1.33;0.93;;;17.60;99.90;;;;;;5001357;28;20223;-84
2022/07/10 11:14:39;;;;;;;0.77;0.70;;;17.70;99.90;;;;;;5001429;28;20207;-85
2022/07/10 11:17:06;;;;;;;1.00;0.80;;;17.60;99.90;;;;;;5001319;28;20714;-85
2022/07/10 11:19:33;;;;;;;1.37;0.70;;;17.60;99.90;;;;;;4986436;28;20644;-84
2022/07/10 11:22:23;;;;;;;1.23;0.80;;;17.50;99.90;;;;;;5002777;28;20188;-85
2022/07/10 11:25:20;;;;;;;0.90;0.90;;;17.60;99.90;;;;;;5025670;28;20303;-85
2022/07/10 11:27:54;;;;;;;1.00;0.73;;;17.60;99.90;;;;;;4982799;28;20236;-84
2022/07/10 11:30:20;;;;;;;1.33;1.00;;;17.60;99.90;;;;;;5005031;28;20222;-86
2022/07/10 11:32:45;;;;;;;0.77;0.77;;;17.60;99.90;;;;;;4983011;28;20219;-86
2022/07/10 11:35:14;;;;;;;3.33;0.80;;;17.80;99.90;;;;;;4983570;28;20212;-85
2022/07/10 11:38:00;;;;;;;0.80;0.80;;;17.90;99.90;;;;;;4974162;28;20211;-83
2022/07/10 11:40:26;;;;;;;2.70;1.10;;;18.00;99.90;;;;;;4989378;28;20192;-85
2022/07/10 11:42:54;;;;;;;2.40;1.17;;;18.10;99.90;;;;;;4975292;28;20184;-84
2022/07/10 11:45:30;;;;;;;0.60;0.60;;;18.10;99.90;;;;;;5006374;28;20380;-84
2022/07/10 11:47:57;;;;;;;1.10;1.00;;;18.20;99.90;;;;;;4985933;28;20687;-84
2022/07/10 11:50:24;;;;;;;1.23;1.13;;;18.10;99.90;;;;;;4985752;28;20211;-84
2022/07/10 11:52:50;;;;;;;0.90;0.33;;;18.00;99.90;;;;;;5002095;28;20297;-84
2022/07/10 11:55:18;;;;;;;0.80;0.80;;;18.00;99.90;;;;;;4992007;28;20194;-86
2022/07/10 11:57:48;;;;;;;1.97;0.80;;;18.10;99.90;;;;;;5000581;28;20194;-86
2022/07/10 12:00:34;;;;;;;3.13;0.97;;;18.30;99.90;;;;;;4988265;28;20657;-85
2022/07/10 12:03:16;;;;;;;2.97;0.70;;;18.60;99.90;;;;;;5000318;28;20211;-85
2022/07/10 12:05:42;;;;;;;0.73;0.73;;;18.70;99.90;;;;;;5000043;28;20216;-85
2022/07/10 12:08:08;;;;;;;0.87;0.50;;;19.00;99.90;;;;;;4990842;28;20343;-85
2022/07/10 12:10:34;;;;;;;0.80;0.80;;;18.90;99.90;;;;;;4991363;28;20230;-85
2022/07/10 12:13:18;;;;;;;2.80;0.80;;;19.10;99.90;;;;;;4969418;28;20242;-85
2022/07/10 12:15:45;;;;;;;1.93;0.87;;;19.30;99.90;;;;;;5024977;28;20219;-86
2022/07/10 12:18:20;;;;;;;2.03;0.77;;;19.50;99.90;;;;;;5002650;28;20257;-86
2022/07/10 12:20:52;;;;;;;1.90;0.80;;;19.60;99.90;;;;;;5001703;28;20219;-86
2022/07/10 12:23:19;;;;;;;3.60;0.70;;;19.90;99.90;;;;;;5007380;28;20226;-87
2022/07/10 12:25:50;;;;;;;2.00;0.83;;;19.90;99.90;;;;;;4992128;28;20620;-87
2022/07/10 12:28:18;;;;;;;0.30;0.30;;;19.70;99.90;;;;;;5019126;28;20707;-85
2022/07/10 12:30:47;;;;;;;0.80;0.80;;;19.70;99.90;;;;;;5002789;28;20262;-86
2022/07/10 12:33:20;;;;;;;1.40;0.90;;;19.80;99.90;;;;;;5000873;28;20302;-86
2022/07/10 12:35:54;;;;;;;1.03;1.03;;;19.70;99.90;;;;;;5007992;28;20714;-86
2022/07/10 12:38:22;;;;;;;1.17;0.90;;;19.80;99.90;;;;;;4991016;28;20227;-86
2022/07/10 12:40:49;;;;;;;0.67;0.67;;;20.10;99.90;;;;;;4981515;28;20294;-86
2022/07/10 12:43:26;;;;;;;1.53;0.60;;;20.30;99.90;;;;;;4987786;28;20271;-86
2022/07/10 12:46:11;;;;;;;2.03;1.03;;;20.60;99.90;;;;;;4988651;28;20706;-87
2022/07/10 12:48:40;;;;;;;1.83;0.87;;;20.80;99.90;;;;;;4997943;28;20267;-87
2022/07/10 12:51:23;;;;;;;2.40;0.90;;;20.40;99.90;;;;;;4987965;28;20238;-86
2022/07/10 12:53:48;;;;;;;1.07;0.73;;;20.50;99.90;;;;;;4980412;28;20234;-86
2022/07/10 12:56:28;;;;;;;1.63;0.60;;;20.60;99.90;;;;;;4972088;28;20225;-88
2022/07/10 12:58:54;;;;;;;2.30;1.20;;;20.50;99.90;;;;;;4980368;28;20223;-85
2022/07/10 13:01:20;;;;;;;2.60;1.13;;;20.20;99.90;;;;;;4949548;28;20192;-86